sensor_id;sensor_type;location;lat;lon;timestamp;pressure;altitude;pressure_sealevel;temperature;humidity
73457;BME280;61691;53.072;6.582;2023-04-24T00:01:45;99702.59;;;11.91;79.42
73457;BME280;61691;53.072;6.582;2023-04-24T00:04:12;99678.06;;;11.73;79.46
73457;BME280;61691;53.072;6.582;2023-04-24T00:06:43;99681.41;;;11.75;78.71
73457;BME280;61691;53.072;6.582;2023-04-24T00:09:10;99703.13;;;11.78;78.59
73457;BME280;61691;53.072;6.582;2023-04-24T00:11:37;99708.78;;;11.75;78.87
73457;BME280;61691;53.072;6.582;2023-04-24T00:14:04;99699.47;;;11.71;78.72
73457;BME280;61691;53.072;6.582;2023-04-24T00:16:30;99697.16;;;11.68;78.88
73457;BME280;61691;53.072;6.582;2023-04-24T00:18:57;99691.16;;;11.66;79.01
73457;BME280;61691;53.072;6.582;2023-04-24T00:21:24;99691.84;;;11.68;79.13
73457;BME280;61691;53.072;6.582;2023-04-24T00:23:52;99690.84;;;11.69;78.54
73457;BME280;61691;53.072;6.582;2023-04-24T00:26:19;99693.66;;;11.68;78.47
73457;BME280;61691;53.072;6.582;2023-04-24T00:28:46;99680.41;;;11.59;78.64
73457;BME280;61691;53.072;6.582;2023-04-24T00:31:13;99677.44;;;11.54;78.64
73457;BME280;61691;53.072;6.582;2023-04-24T00:33:39;99684.56;;;11.62;78.50
73457;BME280;61691;53.072;6.582;2023-04-24T00:36:06;99679.25;;;11.54;78.27
73457;BME280;61691;53.072;6.582;2023-04-24T00:38:33;99664.69;;;11.42;78.32
73457;BME280;61691;53.072;6.582;2023-04-24T00:41:00;99655.09;;;11.33;78.13
73457;BME280;61691;53.072;6.582;2023-04-24T00:43:27;99651.78;;;11.31;78.20
73457;BME280;61691;53.072;6.582;2023-04-24T00:45:54;99661.69;;;11.37;78.19
73457;BME280;61691;53.072;6.582;2023-04-24T00:48:21;99645.16;;;11.27;78.34
73457;BME280;61691;53.072;6.582;2023-04-24T00:50:49;99657.38;;;11.36;78.61
73457;BME280;61691;53.072;6.582;2023-04-24T00:53:16;99663.03;;;11.41;78.03
73457;BME280;61691;53.072;6.582;2023-04-24T00:55:43;99676.63;;;11.46;78.34
73457;BME280;61691;53.072;6.582;2023-04-24T00:58:09;99670.84;;;11.42;78.34
73457;BME280;61691;53.072;6.582;2023-04-24T01:00:36;99657.91;;;11.39;77.99
73457;BME280;61691;53.072;6.582;2023-04-24T01:03:04;99674.63;;;11.48;78.06
73457;BME280;61691;53.072;6.582;2023-04-24T01:05:32;99643.81;;;11.31;78.22
73457;BME280;61691;53.072;6.582;2023-04-24T01:08:00;99667.66;;;11.47;77.99
73457;BME280;61691;53.072;6.582;2023-04-24T01:10:29;99666.16;;;11.44;78.15
73457;BME280;61691;53.072;6.582;2023-04-24T01:12:58;99672.81;;;11.40;78.41
73457;BME280;61691;53.072;6.582;2023-04-24T01:15:24;99660.88;;;11.28;78.37
73457;BME280;61691;53.072;6.582;2023-04-24T01:17:51;99647.13;;;11.24;78.45
73457;BME280;61691;53.072;6.582;2023-04-24T01:20:18;99655.78;;;11.27;78.34
73457;BME280;61691;53.072;6.582;2023-04-24T01:22:45;99648.44;;;11.29;78.14
73457;BME280;61691;53.072;6.582;2023-04-24T01:25:12;99661.53;;;11.38;78.57
73457;BME280;61691;53.072;6.582;2023-04-24T01:27:39;99668.34;;;11.41;77.97
73457;BME280;61691;53.072;6.582;2023-04-24T01:30:07;99676.47;;;11.47;78.45
73457;BME280;61691;53.072;6.582;2023-04-24T01:32:34;99670.00;;;11.42;78.27
73457;BME280;61691;53.072;6.582;2023-04-24T01:35:02;99613.00;;;11.05;78.08
73457;BME280;61691;53.072;6.582;2023-04-24T01:37:29;99668.66;;;11.38;78.04
73457;BME280;61691;53.072;6.582;2023-04-24T01:39:56;99662.06;;;11.34;78.02
73457;BME280;61691;53.072;6.582;2023-04-24T01:42:23;99655.41;;;11.30;77.93
73457;BME280;61691;53.072;6.582;2023-04-24T01:44:50;99613.50;;;11.01;78.51
73457;BME280;61691;53.072;6.582;2023-04-24T01:47:17;99667.69;;;11.31;78.04
73457;BME280;61691;53.072;6.582;2023-04-24T01:49:45;99580.22;;;10.74;78.50
73457;BME280;61691;53.072;6.582;2023-04-24T01:52:12;99644.19;;;11.11;78.12
73457;BME280;61691;53.072;6.582;2023-04-24T01:54:39;99635.88;;;11.14;78.25
73457;BME280;61691;53.072;6.582;2023-04-24T01:57:05;99658.59;;;11.25;78.58
73457;BME280;61691;53.072;6.582;2023-04-24T01:59:33;99660.25;;;11.26;78.63
73457;BME280;61691;53.072;6.582;2023-04-24T02:01:59;99666.03;;;11.30;78.73
73457;BME280;61691;53.072;6.582;2023-04-24T02:04:26;99670.66;;;11.36;78.59
73457;BME280;61691;53.072;6.582;2023-04-24T02:06:53;99665.03;;;11.31;78.29
73457;BME280;61691;53.072;6.582;2023-04-24T02:09:19;99637.88;;;11.12;78.52
73457;BME280;61691;53.072;6.582;2023-04-24T02:11:46;99664.38;;;11.29;78.88
73457;BME280;61691;53.072;6.582;2023-04-24T02:14:13;99676.47;;;11.39;78.42
73457;BME280;61691;53.072;6.582;2023-04-24T02:16:39;99659.56;;;11.32;78.91
73457;BME280;61691;53.072;6.582;2023-04-24T02:19:06;99662.38;;;11.31;78.39
73457;BME280;61691;53.072;6.582;2023-04-24T02:21:33;99611.38;;;10.96;78.61
73457;BME280;61691;53.072;6.582;2023-04-24T02:24:00;99600.09;;;10.86;78.90
73457;BME280;61691;53.072;6.582;2023-04-24T02:26:27;99668.38;;;11.24;78.62
73457;BME280;61691;53.072;6.582;2023-04-24T02:28:54;99655.78;;;11.27;79.13
73457;BME280;61691;53.072;6.582;2023-04-24T02:31:20;99671.34;;;11.30;78.89
73457;BME280;61691;53.072;6.582;2023-04-24T02:33:47;99670.50;;;11.29;79.45
73457;BME280;61691;53.072;6.582;2023-04-24T02:36:14;99667.69;;;11.22;78.79
73457;BME280;61691;53.072;6.582;2023-04-24T02:38:40;99666.03;;;11.21;79.32
73457;BME280;61691;53.072;6.582;2023-04-24T02:41:07;99666.38;;;11.27;79.23
73457;BME280;61691;53.072;6.582;2023-04-24T02:43:34;99648.50;;;11.12;79.13
73457;BME280;61691;53.072;6.582;2023-04-24T02:46:01;99645.16;;;11.10;79.49
73457;BME280;61691;53.072;6.582;2023-04-24T02:48:28;99652.13;;;11.19;79.13
73457;BME280;61691;53.072;6.582;2023-04-24T02:50:55;99663.72;;;11.27;79.30
73457;BME280;61691;53.072;6.582;2023-04-24T02:53:21;99609.19;;;10.92;79.27
73457;BME280;61691;53.072;6.582;2023-04-24T02:55:49;99662.91;;;11.18;79.62
73457;BME280;61691;53.072;6.582;2023-04-24T02:58:16;99674.66;;;11.15;79.53
73457;BME280;61691;53.072;6.582;2023-04-24T03:00:43;99628.28;;;10.87;79.63
73457;BME280;61691;53.072;6.582;2023-04-24T03:03:10;99674.66;;;11.15;79.59
73457;BME280;61691;53.072;6.582;2023-04-24T03:05:37;99667.22;;;11.11;79.68
73457;BME280;61691;53.072;6.582;2023-04-24T03:08:04;99661.09;;;11.02;79.62
73457;BME280;61691;53.072;6.582;2023-04-24T03:10:31;99658.91;;;10.98;79.58
73457;BME280;61691;53.072;6.582;2023-04-24T03:12:58;99674.34;;;11.02;80.06
73457;BME280;61691;53.072;6.582;2023-04-24T03:15:26;99671.00;;;11.00;79.67
73457;BME280;61691;53.072;6.582;2023-04-24T03:17:53;99666.06;;;10.97;79.61
73457;BME280;61691;53.072;6.582;2023-04-24T03:20:22;99659.25;;;10.95;80.07
73457;BME280;61691;53.072;6.582;2023-04-24T03:22:49;99663.41;;;10.97;80.26
73457;BME280;61691;53.072;6.582;2023-04-24T03:25:15;99681.78;;;11.07;80.16
73457;BME280;61691;53.072;6.582;2023-04-24T03:27:42;99684.28;;;11.08;80.10
73457;BME280;61691;53.072;6.582;2023-04-24T03:30:09;99657.09;;;10.90;79.76
73457;BME280;61691;53.072;6.582;2023-04-24T03:32:36;99677.00;;;11.02;79.79
73457;BME280;61691;53.072;6.582;2023-04-24T03:35:02;99660.09;;;10.87;79.63
73457;BME280;61691;53.072;6.582;2023-04-24T03:37:29;99667.88;;;10.89;79.87
73457;BME280;61691;53.072;6.582;2023-04-24T03:39:56;99665.38;;;10.87;79.82
73457;BME280;61691;53.072;6.582;2023-04-24T03:42:23;99659.91;;;10.80;80.20
73457;BME280;61691;53.072;6.582;2023-04-24T03:44:49;99632.88;;;10.61;79.93
73457;BME280;61691;53.072;6.582;2023-04-24T03:47:16;99667.69;;;10.90;80.04
73457;BME280;61691;53.072;6.582;2023-04-24T03:49:43;99675.63;;;10.90;79.86
73457;BME280;61691;53.072;6.582;2023-04-24T03:52:10;99656.28;;;10.81;80.35
73457;BME280;61691;53.072;6.582;2023-04-24T03:54:37;99667.72;;;10.82;79.91
73457;BME280;61691;53.072;6.582;2023-04-24T03:57:03;99675.16;;;10.86;80.10
73457;BME280;61691;53.072;6.582;2023-04-24T03:59:31;99665.53;;;10.77;80.15
73457;BME280;61691;53.072;6.582;2023-04-24T04:01:58;99687.91;;;10.91;80.25
73457;BME280;61691;53.072;6.582;2023-04-24T04:04:24;99656.75;;;10.69;80.31
73457;BME280;61691;53.072;6.582;2023-04-24T04:06:51;99669.69;;;10.80;80.36
73457;BME280;61691;53.072;6.582;2023-04-24T04:09:19;99654.75;;;10.71;80.13
73457;BME280;61691;53.072;6.582;2023-04-24T04:11:46;99678.31;;;10.82;80.12
73457;BME280;61691;53.072;6.582;2023-04-24T04:14:13;99689.91;;;10.89;80.13
73457;BME280;61691;53.072;6.582;2023-04-24T04:16:40;99680.63;;;10.85;80.25
73457;BME280;61691;53.072;6.582;2023-04-24T04:19:06;99701.00;;;10.93;80.08
73457;BME280;61691;53.072;6.582;2023-04-24T04:21:33;99688.91;;;10.82;80.02
73457;BME280;61691;53.072;6.582;2023-04-24T04:24:00;99693.88;;;10.85;80.31
73457;BME280;61691;53.072;6.582;2023-04-24T04:26:27;99675.66;;;10.74;79.94
73457;BME280;61691;53.072;6.582;2023-04-24T04:28:53;99706.16;;;10.86;80.55
73457;BME280;61691;53.072;6.582;2023-04-24T04:31:20;99674.97;;;10.64;80.49
73457;BME280;61691;53.072;6.582;2023-04-24T04:33:47;99705.44;;;10.76;80.50
73457;BME280;61691;53.072;6.582;2023-04-24T04:36:14;99661.53;;;10.49;80.18
73457;BME280;61691;53.072;6.582;2023-04-24T04:38:40;99704.63;;;10.75;80.28
73457;BME280;61691;53.072;6.582;2023-04-24T04:41:09;99702.47;;;10.71;80.35
73457;BME280;61691;53.072;6.582;2023-04-24T04:43:36;99704.13;;;10.72;80.43
73457;BME280;61691;53.072;6.582;2023-04-24T04:46:04;99706.47;;;10.67;80.50
73457;BME280;61691;53.072;6.582;2023-04-24T04:48:31;99710.44;;;10.79;80.57
73457;BME280;61691;53.072;6.582;2023-04-24T04:50:58;99712.75;;;10.74;80.41
73457;BME280;61691;53.072;6.582;2023-04-24T04:53:25;99716.06;;;10.76;80.08
73457;BME280;61691;53.072;6.582;2023-04-24T04:55:52;99733.63;;;10.85;80.37
73457;BME280;61691;53.072;6.582;2023-04-24T04:58:19;99708.59;;;10.71;80.08
73457;BME280;61691;53.072;6.582;2023-04-24T05:00:46;99732.97;;;10.91;80.58
73457;BME280;61691;53.072;6.582;2023-04-24T05:03:12;99717.41;;;10.80;80.52
73457;BME280;61691;53.072;6.582;2023-04-24T05:05:44;99709.78;;;10.77;80.02
73457;BME280;61691;53.072;6.582;2023-04-24T05:08:11;99671.28;;;10.48;80.49
73457;BME280;61691;53.072;6.582;2023-04-24T05:10:52;99753.56;;;10.89;80.53
73457;BME280;61691;53.072;6.582;2023-04-24T05:13:19;99739.94;;;10.84;80.31
73457;BME280;61691;53.072;6.582;2023-04-24T05:15:57;99747.88;;;10.84;80.41
73457;BME280;61691;53.072;6.582;2023-04-24T05:18:24;99767.97;;;10.95;80.22
73457;BME280;61691;53.072;6.582;2023-04-24T05:20:51;99771.75;;;10.92;80.33
73457;BME280;61691;53.072;6.582;2023-04-24T05:23:18;99767.44;;;10.91;80.20
73457;BME280;61691;53.072;6.582;2023-04-24T05:25:44;99776.72;;;10.87;80.41
73457;BME280;61691;53.072;6.582;2023-04-24T05:28:12;99781.38;;;10.93;80.54
73457;BME280;61691;53.072;6.582;2023-04-24T05:30:39;99760.13;;;10.77;80.77
73457;BME280;61691;53.072;6.582;2023-04-24T05:33:06;99764.78;;;10.83;80.67
73457;BME280;61691;53.072;6.582;2023-04-24T05:35:33;99782.38;;;10.92;80.35
73457;BME280;61691;53.072;6.582;2023-04-24T05:38:00;99783.34;;;10.91;80.79
73457;BME280;61691;53.072;6.582;2023-04-24T05:40:26;99787.53;;;10.94;80.74
73457;BME280;61691;53.072;6.582;2023-04-24T05:42:53;99790.00;;;10.95;80.70
73457;BME280;61691;53.072;6.582;2023-04-24T05:45:20;99798.97;;;11.02;80.62
73457;BME280;61691;53.072;6.582;2023-04-24T05:47:46;99785.38;;;10.97;80.44
73457;BME280;61691;53.072;6.582;2023-04-24T05:50:13;99801.81;;;11.09;80.55
73457;BME280;61691;53.072;6.582;2023-04-24T05:52:40;99795.66;;;11.08;80.61
73457;BME280;61691;53.072;6.582;2023-04-24T05:55:07;99797.66;;;11.06;80.47
73457;BME280;61691;53.072;6.582;2023-04-24T05:57:34;99743.75;;;10.81;80.57
73457;BME280;61691;53.072;6.582;2023-04-24T06:00:01;99791.19;;;11.09;80.40
73457;BME280;61691;53.072;6.582;2023-04-24T06:02:27;99737.78;;;10.79;80.66
73457;BME280;61691;53.072;6.582;2023-04-24T06:04:59;99812.91;;;11.20;80.63
73457;BME280;61691;53.072;6.582;2023-04-24T06:07:26;99795.00;;;11.14;80.53
73457;BME280;61691;53.072;6.582;2023-04-24T06:09:53;99803.31;;;11.19;80.45
73457;BME280;61691;53.072;6.582;2023-04-24T06:12:19;99824.38;;;11.29;80.50
73457;BME280;61691;53.072;6.582;2023-04-24T06:14:46;99810.78;;;11.24;80.57
73457;BME280;61691;53.072;6.582;2023-04-24T06:17:13;99820.25;;;11.27;80.38
73457;BME280;61691;53.072;6.582;2023-04-24T06:19:40;99825.88;;;11.23;80.44
73457;BME280;61691;53.072;6.582;2023-04-24T06:22:07;99830.84;;;11.27;80.62
73457;BME280;61691;53.072;6.582;2023-04-24T06:24:36;99831.00;;;11.17;80.39
73457;BME280;61691;53.072;6.582;2023-04-24T06:27:03;99842.09;;;11.20;80.43
73457;BME280;61691;53.072;6.582;2023-04-24T06:29:30;99819.53;;;11.00;80.17
73457;BME280;61691;53.072;6.582;2023-04-24T06:31:56;99840.09;;;11.14;80.07
73457;BME280;61691;53.072;6.582;2023-04-24T06:34:23;99860.19;;;11.17;80.08
73457;BME280;61691;53.072;6.582;2023-04-24T06:36:50;99854.00;;;11.08;80.28
73457;BME280;61691;53.072;6.582;2023-04-24T06:39:16;99848.22;;;11.05;80.55
73457;BME280;61691;53.072;6.582;2023-04-24T06:41:43;99834.44;;;11.01;80.15
73457;BME280;61691;53.072;6.582;2023-04-24T06:44:10;99834.09;;;10.96;80.20
73457;BME280;61691;53.072;6.582;2023-04-24T06:46:36;99833.28;;;10.96;80.50
73457;BME280;61691;53.072;6.582;2023-04-24T06:49:06;99862.31;;;11.13;80.45
73457;BME280;61691;53.072;6.582;2023-04-24T06:51:33;99861.66;;;11.11;80.48
73457;BME280;61691;53.072;6.582;2023-04-24T06:53:59;99828.28;;;10.93;80.67
73457;BME280;61691;53.072;6.582;2023-04-24T06:56:26;99868.97;;;11.17;80.82
73457;BME280;61691;53.072;6.582;2023-04-24T06:58:55;99843.09;;;11.11;80.40
73457;BME280;61691;53.072;6.582;2023-04-24T07:01:22;99854.72;;;11.18;80.29
73457;BME280;61691;53.072;6.582;2023-04-24T07:03:48;99861.69;;;11.19;80.26
73457;BME280;61691;53.072;6.582;2023-04-24T07:06:15;99880.25;;;11.19;80.19
73457;BME280;61691;53.072;6.582;2023-04-24T07:08:45;99870.59;;;11.10;80.23
73457;BME280;61691;53.072;6.582;2023-04-24T07:11:11;99869.78;;;11.10;80.27
73457;BME280;61691;53.072;6.582;2023-04-24T07:13:38;99877.38;;;11.13;80.46
73457;BME280;61691;53.072;6.582;2023-04-24T07:16:08;99873.56;;;11.07;80.25
73457;BME280;61691;53.072;6.582;2023-04-24T07:18:36;99865.28;;;11.02;80.45
73457;BME280;61691;53.072;6.582;2023-04-24T07:21:03;99880.53;;;11.08;80.08
73457;BME280;61691;53.072;6.582;2023-04-24T07:23:29;99879.22;;;11.04;80.07
73457;BME280;61691;53.072;6.582;2023-04-24T07:25:57;99901.44;;;11.11;80.44
73457;BME280;61691;53.072;6.582;2023-04-24T07:28:24;99901.09;;;11.14;80.28
73457;BME280;61691;53.072;6.582;2023-04-24T07:30:51;99883.81;;;10.94;79.78
73457;BME280;61691;53.072;6.582;2023-04-24T07:33:20;99906.22;;;11.08;79.98
73457;BME280;61691;53.072;6.582;2023-04-24T07:35:47;99908.41;;;11.12;80.34
73457;BME280;61691;53.072;6.582;2023-04-24T07:38:14;99920.34;;;11.16;80.09
73457;BME280;61691;53.072;6.582;2023-04-24T07:40:41;99890.13;;;11.01;80.19
73457;BME280;61691;53.072;6.582;2023-04-24T07:43:08;99912.38;;;11.08;80.06
73457;BME280;61691;53.072;6.582;2023-04-24T07:45:35;99909.56;;;11.10;79.78
73457;BME280;61691;53.072;6.582;2023-04-24T07:48:04;99943.56;;;11.14;79.86
73457;BME280;61691;53.072;6.582;2023-04-24T07:50:31;99949.19;;;11.11;79.80
73457;BME280;61691;53.072;6.582;2023-04-24T07:52:57;99946.50;;;11.03;79.49
73457;BME280;61691;53.072;6.582;2023-04-24T07:55:24;99946.13;;;10.98;79.39
73457;BME280;61691;53.072;6.582;2023-04-24T07:57:53;99963.56;;;11.01;79.47
73457;BME280;61691;53.072;6.582;2023-04-24T08:00:20;99957.53;;;10.91;79.29
73457;BME280;61691;53.072;6.582;2023-04-24T08:02:47;99920.75;;;10.62;79.25
73457;BME280;61691;53.072;6.582;2023-04-24T08:05:14;99969.94;;;10.90;79.64
73457;BME280;61691;53.072;6.582;2023-04-24T08:07:41;99977.56;;;10.85;79.46
73457;BME280;61691;53.072;6.582;2023-04-24T08:10:12;99964.88;;;10.71;79.38
73457;BME280;61691;53.072;6.582;2023-04-24T08:12:39;99979.50;;;10.75;79.14
73457;BME280;61691;53.072;6.582;2023-04-24T08:15:07;99973.25;;;10.58;79.38
73457;BME280;61691;53.072;6.582;2023-04-24T08:17:34;99979.84;;;10.54;79.24
73457;BME280;61691;53.072;6.582;2023-04-24T08:20:03;100013.53;;;10.62;79.11
73457;BME280;61691;53.072;6.582;2023-04-24T08:22:31;99996.22;;;10.50;79.12
73457;BME280;61691;53.072;6.582;2023-04-24T08:25:00;100008.00;;;10.55;79.20
73457;BME280;61691;53.072;6.582;2023-04-24T08:27:27;100023.47;;;10.60;79.21
73457;BME280;61691;53.072;6.582;2023-04-24T08:29:54;100006.28;;;10.46;79.38
73457;BME280;61691;53.072;6.582;2023-04-24T08:32:21;100034.22;;;10.58;79.43
73457;BME280;61691;53.072;6.582;2023-04-24T08:34:48;100026.50;;;10.47;79.21
73457;BME280;61691;53.072;6.582;2023-04-24T08:37:15;100023.63;;;10.40;78.86
73457;BME280;61691;53.072;6.582;2023-04-24T08:39:42;100028.72;;;10.34;79.27
73457;BME280;61691;53.072;6.582;2023-04-24T08:42:11;100048.38;;;10.31;79.17
73457;BME280;61691;53.072;6.582;2023-04-24T08:44:38;100025.78;;;10.19;78.96
73457;BME280;61691;53.072;6.582;2023-04-24T08:47:05;100033.03;;;10.17;79.44
73457;BME280;61691;53.072;6.582;2023-04-24T08:49:33;100065.94;;;10.32;79.34
73457;BME280;61691;53.072;6.582;2023-04-24T08:52:01;100067.38;;;10.27;78.76
73457;BME280;61691;53.072;6.582;2023-04-24T08:54:28;100065.22;;;10.22;79.25
73457;BME280;61691;53.072;6.582;2023-04-24T08:56:59;100082.75;;;10.23;78.95
73457;BME280;61691;53.072;6.582;2023-04-24T08:59:28;100042.91;;;9.97;78.71
73457;BME280;61691;53.072;6.582;2023-04-24T09:01:55;100087.13;;;10.15;79.29
73457;BME280;61691;53.072;6.582;2023-04-24T09:04:23;100084.06;;;10.09;78.69
73457;BME280;61691;53.072;6.582;2023-04-24T09:06:55;100090.50;;;10.07;78.66
73457;BME280;61691;53.072;6.582;2023-04-24T09:09:30;100106.69;;;10.04;78.54
73457;BME280;61691;53.072;6.582;2023-04-24T09:11:58;100113.66;;;10.05;78.87
73457;BME280;61691;53.072;6.582;2023-04-24T09:14:25;100111.16;;;10.03;78.81
73457;BME280;61691;53.072;6.582;2023-04-24T09:16:52;100081.97;;;9.86;78.47
73457;BME280;61691;53.072;6.582;2023-04-24T09:19:19;100102.81;;;9.98;78.48
73457;BME280;61691;53.072;6.582;2023-04-24T09:21:48;100094.66;;;9.92;78.59
73457;BME280;61691;53.072;6.582;2023-04-24T09:24:17;100126.91;;;10.05;78.57
73457;BME280;61691;53.072;6.582;2023-04-24T09:26:44;100124.84;;;9.99;78.34
73457;BME280;61691;53.072;6.582;2023-04-24T09:29:16;100129.91;;;10.10;78.20
73457;BME280;61691;53.072;6.582;2023-04-24T09:31:44;100104.63;;;9.98;78.77
73457;BME280;61691;53.072;6.582;2023-04-24T09:34:12;100146.19;;;10.15;78.50
73457;BME280;61691;53.072;6.582;2023-04-24T09:36:41;100140.63;;;10.18;78.31
73457;BME280;61691;53.072;6.582;2023-04-24T09:39:10;100130.63;;;10.12;78.00
73457;BME280;61691;53.072;6.582;2023-04-24T09:41:51;100141.69;;;10.25;78.00
73457;BME280;61691;53.072;6.582;2023-04-24T09:44:22;100127.66;;;10.15;77.98
73457;BME280;61691;53.072;6.582;2023-04-24T09:46:57;100158.44;;;10.26;77.96
73457;BME280;61691;53.072;6.582;2023-04-24T09:49:29;100117.56;;;10.01;77.68
73457;BME280;61691;53.072;6.582;2023-04-24T09:52:07;100141.50;;;10.09;77.54
73457;BME280;61691;53.072;6.582;2023-04-24T09:54:34;100145.22;;;10.16;77.57
73457;BME280;61691;53.072;6.582;2023-04-24T09:57:03;100162.66;;;10.19;77.50
73457;BME280;61691;53.072;6.582;2023-04-24T09:59:30;100169.56;;;10.29;77.94
73457;BME280;61691;53.072;6.582;2023-04-24T10:01:56;100161.53;;;10.21;77.11
73457;BME280;61691;53.072;6.582;2023-04-24T10:04:27;100195.16;;;10.38;77.15
73457;BME280;61691;53.072;6.582;2023-04-24T10:06:56;100184.56;;;10.38;77.08
73457;BME280;61691;53.072;6.582;2023-04-24T10:09:25;100195.56;;;10.43;76.86
73457;BME280;61691;53.072;6.582;2023-04-24T10:11:54;100203.19;;;10.46;77.19
73457;BME280;61691;53.072;6.582;2023-04-24T10:14:23;100193.88;;;10.42;76.70
73457;BME280;61691;53.072;6.582;2023-04-24T10:16:53;100195.94;;;10.48;76.76
73457;BME280;61691;53.072;6.582;2023-04-24T10:19:20;100202.00;;;10.59;76.61
73457;BME280;61691;53.072;6.582;2023-04-24T10:21:47;100202.09;;;10.67;76.79
73457;BME280;61691;53.072;6.582;2023-04-24T10:24:15;100214.44;;;10.76;76.31
73457;BME280;61691;53.072;6.582;2023-04-24T10:26:43;100217.47;;;10.81;76.63
73457;BME280;61691;53.072;6.582;2023-04-24T10:29:12;100226.63;;;10.86;75.99
73457;BME280;61691;53.072;6.582;2023-04-24T10:31:39;100189.69;;;10.67;75.55
73457;BME280;61691;53.072;6.582;2023-04-24T10:34:08;100211.69;;;10.68;75.08
73457;BME280;61691;53.072;6.582;2023-04-24T10:36:38;100227.03;;;10.74;74.37
73457;BME280;61691;53.072;6.582;2023-04-24T10:39:11;100245.72;;;10.72;74.46
73457;BME280;61691;53.072;6.582;2023-04-24T10:41:39;100230.19;;;10.60;74.45
73457;BME280;61691;53.072;6.582;2023-04-24T10:44:07;100246.84;;;10.70;74.33
73457;BME280;61691;53.072;6.582;2023-04-24T10:46:35;100249.91;;;10.75;74.28
73457;BME280;61691;53.072;6.582;2023-04-24T10:49:06;100259.91;;;10.81;73.82
73457;BME280;61691;53.072;6.582;2023-04-24T10:54:25;100261.19;;;10.95;73.24
73457;BME280;61691;53.072;6.582;2023-04-24T10:56:52;100257.34;;;10.89;72.89
73457;BME280;61691;53.072;6.582;2023-04-24T10:59:35;100235.63;;;10.76;72.69
73457;BME280;61691;53.072;6.582;2023-04-24T11:02:01;100277.34;;;11.01;72.90
73457;BME280;61691;53.072;6.582;2023-04-24T11:04:32;100260.97;;;10.88;72.53
73457;BME280;61691;53.072;6.582;2023-04-24T11:06:59;100287.03;;;11.10;72.31
73457;BME280;61691;53.072;6.582;2023-04-24T11:09:27;100285.38;;;11.09;72.10
73457;BME280;61691;53.072;6.582;2023-04-24T11:12:09;100292.34;;;11.10;71.09
73457;BME280;61691;53.072;6.582;2023-04-24T11:17:32;100292.41;;;11.01;71.09
73457;BME280;61691;53.072;6.582;2023-04-24T11:20:07;100285.81;;;10.87;70.71
73457;BME280;61691;53.072;6.582;2023-04-24T11:22:54;100270.19;;;10.84;71.02
73457;BME280;61691;53.072;6.582;2023-04-24T11:25:24;100300.50;;;10.99;70.35
73457;BME280;61691;53.072;6.582;2023-04-24T11:28:03;100307.81;;;10.97;70.42
73457;BME280;61691;53.072;6.582;2023-04-24T11:30:31;100303.84;;;11.01;69.46
73457;BME280;61691;53.072;6.582;2023-04-24T11:33:07;100299.44;;;10.92;69.84
73457;BME280;61691;53.072;6.582;2023-04-24T11:35:39;100277.22;;;10.75;69.66
73457;BME280;61691;53.072;6.582;2023-04-24T11:38:07;100314.47;;;11.01;69.42
73457;BME280;61691;53.072;6.582;2023-04-24T11:40:50;100303.31;;;10.98;69.05
73457;BME280;61691;53.072;6.582;2023-04-24T11:43:18;100306.34;;;11.03;69.05
73457;BME280;61691;53.072;6.582;2023-04-24T11:45:49;100311.44;;;11.14;68.75
73457;BME280;61691;53.072;6.582;2023-04-24T11:48:20;100329.31;;;11.30;68.18
73457;BME280;61691;53.072;6.582;2023-04-24T11:50:50;100325.69;;;11.31;68.03
73457;BME280;61691;53.072;6.582;2023-04-24T11:53:19;100317.44;;;11.34;68.13
73457;BME280;61691;53.072;6.582;2023-04-24T11:55:47;100313.56;;;11.28;67.45
73457;BME280;61691;53.072;6.582;2023-04-24T11:58:13;100335.69;;;11.37;67.44
73457;BME280;61691;53.072;6.582;2023-04-24T12:00:40;100336.09;;;11.24;66.90
73457;BME280;61691;53.072;6.582;2023-04-24T12:03:08;100358.13;;;11.24;66.43
73457;BME280;61691;53.072;6.582;2023-04-24T12:05:36;100362.66;;;11.14;66.68
73457;BME280;61691;53.072;6.582;2023-04-24T12:08:03;100345.50;;;10.91;66.48
73457;BME280;61691;53.072;6.582;2023-04-24T12:10:31;100360.06;;;10.87;67.28
73457;BME280;61691;53.072;6.582;2023-04-24T12:12:59;100370.94;;;10.84;67.13
73457;BME280;61691;53.072;6.582;2023-04-24T12:15:27;100361.25;;;10.75;67.18
73457;BME280;61691;53.072;6.582;2023-04-24T12:17:55;100369.03;;;10.76;67.49
73457;BME280;61691;53.072;6.582;2023-04-24T12:20:30;100376.31;;;10.74;67.74
73457;BME280;61691;53.072;6.582;2023-04-24T12:22:58;100383.81;;;10.79;67.36
73457;BME280;61691;53.072;6.582;2023-04-24T12:25:30;100370.47;;;10.71;67.44
73457;BME280;61691;53.072;6.582;2023-04-24T12:30:32;100331.28;;;10.37;67.48
73457;BME280;61691;53.072;6.582;2023-04-24T12:33:00;100394.19;;;10.72;67.61
73457;BME280;61691;53.072;6.582;2023-04-24T12:35:28;100394.31;;;10.71;67.79
73457;BME280;61691;53.072;6.582;2023-04-24T12:37:55;100391.66;;;10.71;68.13
73457;BME280;61691;53.072;6.582;2023-04-24T12:40:25;100385.38;;;10.72;68.39
73457;BME280;61691;53.072;6.582;2023-04-24T12:42:52;100389.69;;;10.82;68.62
73457;BME280;61691;53.072;6.582;2023-04-24T12:45:21;100385.97;;;10.93;68.51
73457;BME280;61691;53.072;6.582;2023-04-24T12:47:50;100393.75;;;11.04;68.52
73457;BME280;61691;53.072;6.582;2023-04-24T12:50:16;100393.84;;;11.12;68.09
73457;BME280;61691;53.072;6.582;2023-04-24T12:52:44;100402.03;;;11.19;67.58
73457;BME280;61691;53.072;6.582;2023-04-24T12:55:11;100390.19;;;11.13;67.65
73457;BME280;61691;53.072;6.582;2023-04-24T12:57:39;100407.56;;;11.25;67.40
73457;BME280;61691;53.072;6.582;2023-04-24T13:00:07;100415.91;;;11.31;67.46
73457;BME280;61691;53.072;6.582;2023-04-24T13:02:34;100383.06;;;11.14;66.99
73457;BME280;61691;53.072;6.582;2023-04-24T13:05:02;100413.63;;;11.36;67.38
73457;BME280;61691;53.072;6.582;2023-04-24T13:07:29;100386.88;;;11.29;66.89
73457;BME280;61691;53.072;6.582;2023-04-24T13:09:56;100414.78;;;11.51;66.89